DPV1020 VNKT-VQPR
Flight info
| Callsign | DPV1020 |
|---|---|
| Flight time | 0h 43m |
| Altitude | 35000 |
| Route | IGRIS1D KIMTI G348 SUBSU DCT TAKTI DCT PRO |
| Aircraft | A319/M-SDE3FGHIRWY/LB1 |
Departure
| Time | 2026-04-28 21:25 |
|---|---|
| Airport | Tribhuvan International Airport (VNKT) |
Arrival
| Time | 2026-04-28 22:08 |
|---|---|
| Airport | Paro International Airport (VQPR) |
| Time | Latitude | Longitude | Altitude | Speed | Heading |
|---|---|---|---|---|---|
| 2026-04-28 20:54 | 27.70071 | 85.35870 | 4441 ft | 0 kts | 291° |
| 2026-04-28 21:17 | 27.70067 | 85.35881 | 4485 ft | 2 kts | 291° |
| 2026-04-28 21:17 | 27.70061 | 85.35897 | 4485 ft | 2 kts | 291° |
| 2026-04-28 21:18 | 27.70056 | 85.35913 | 4485 ft | 2 kts | 291° |
| 2026-04-28 21:18 | 27.70051 | 85.35927 | 4484 ft | 0 kts | 291° |
| 2026-04-28 21:18 | 27.70047 | 85.35939 | 4484 ft | 2 kts | 275° |
| 2026-04-28 21:18 | 27.70048 | 85.35957 | 4484 ft | 2 kts | 255° |
| 2026-04-28 21:19 | 27.70054 | 85.35972 | 4485 ft | 2 kts | 233° |
| 2026-04-28 21:19 | 27.70065 | 85.35984 | 4485 ft | 2 kts | 211° |
| 2026-04-28 21:19 | 27.70072 | 85.35988 | 4485 ft | 1 kts | 199° |
| 2026-04-28 21:19 | 27.70076 | 85.35989 | 4485 ft | 0 kts | 200° |
| 2026-04-28 21:21 | 27.70044 | 85.35976 | 4484 ft | 10 kts | 201° |
| 2026-04-28 21:21 | 27.69943 | 85.35929 | 4481 ft | 20 kts | 202° |
| 2026-04-28 21:22 | 27.69785 | 85.35857 | 4475 ft | 27 kts | 201° |
| 2026-04-28 21:22 | 27.69602 | 85.35774 | 4468 ft | 29 kts | 202° |
| 2026-04-28 21:22 | 27.69399 | 85.35683 | 4447 ft | 33 kts | 200° |
| 2026-04-28 21:22 | 27.69251 | 85.35616 | 4438 ft | 33 kts | 203° |
| 2026-04-28 21:23 | 27.69046 | 85.35612 | 4429 ft | 17 kts | 146° |
| 2026-04-28 21:23 | 27.68924 | 85.35586 | 4424 ft | 20 kts | 200° |
| 2026-04-28 21:23 | 27.68779 | 85.35522 | 4419 ft | 24 kts | 201° |
| 2026-04-28 21:23 | 27.68603 | 85.35442 | 4411 ft | 28 kts | 202° |
| 2026-04-28 21:24 | 27.68462 | 85.35329 | 4409 ft | 19 kts | 230° |
| 2026-04-28 21:24 | 27.68407 | 85.35359 | 4408 ft | 12 kts | 36° |
| 2026-04-28 21:24 | 27.68557 | 85.35422 | 4410 ft | 50 kts | 21° |
| 2026-04-28 21:24 | 27.69102 | 85.35666 | 4435 ft | 113 kts | 22° |
| 2026-04-28 21:25 | 27.69986 | 85.36065 | 4521 ft | 156 kts | 22° |
| 2026-04-28 21:25 | 27.71028 | 85.36530 | 4927 ft | 163 kts | 21° |
| 2026-04-28 21:25 | 27.72090 | 85.37015 | 5476 ft | 166 kts | 26° |
| 2026-04-28 21:25 | 27.73034 | 85.37753 | 6028 ft | 167 kts | 45° |
| 2026-04-28 21:26 | 27.73724 | 85.38817 | 6387 ft | 174 kts | 64° |
| 2026-04-28 21:26 | 27.74068 | 85.40159 | 6643 ft | 187 kts | 85° |
| 2026-04-28 21:26 | 27.74102 | 85.41647 | 6928 ft | 201 kts | 91° |
| 2026-04-28 21:26 | 27.74045 | 85.43192 | 7200 ft | 216 kts | 99° |
| 2026-04-28 21:27 | 27.73535 | 85.44829 | 7474 ft | 234 kts | 122° |
| 2026-04-28 21:27 | 27.72434 | 85.46214 | 8006 ft | 240 kts | 144° |
| 2026-04-28 21:27 | 27.70945 | 85.47104 | 8590 ft | 244 kts | 157° |
| 2026-04-28 21:27 | 27.69328 | 85.47841 | 8931 ft | 260 kts | 159° |
| 2026-04-28 21:28 | 27.67594 | 85.48659 | 9234 ft | 277 kts | 153° |
| 2026-04-28 21:28 | 27.65908 | 85.49870 | 9554 ft | 294 kts | 141° |
| 2026-04-28 21:28 | 27.64438 | 85.51512 | 10093 ft | 301 kts | 129° |
| 2026-04-28 21:28 | 27.63278 | 85.53497 | 10634 ft | 308 kts | 117° |
| 2026-04-28 21:29 | 27.62472 | 85.55780 | 10927 ft | 324 kts | 108° |
| 2026-04-28 21:29 | 27.61808 | 85.58318 | 11212 ft | 340 kts | 106° |
| 2026-04-28 21:29 | 27.61159 | 85.60905 | 11783 ft | 347 kts | 106° |
| 2026-04-28 21:29 | 27.60493 | 85.63501 | 12489 ft | 350 kts | 106° |
| 2026-04-28 21:30 | 27.59794 | 85.66162 | 13209 ft | 354 kts | 107° |
| 2026-04-28 21:30 | 27.59062 | 85.68803 | 13909 ft | 358 kts | 110° |
| 2026-04-28 21:30 | 27.58086 | 85.71389 | 14479 ft | 362 kts | 116° |
| 2026-04-28 21:30 | 27.56979 | 85.73937 | 15036 ft | 365 kts | 117° |
| 2026-04-28 21:31 | 27.55836 | 85.76504 | 15594 ft | 367 kts | 117° |
| 2026-04-28 21:31 | 27.54682 | 85.79099 | 16147 ft | 370 kts | 117° |
| 2026-04-28 21:31 | 27.53540 | 85.81677 | 16674 ft | 373 kts | 117° |
| 2026-04-28 21:31 | 27.52434 | 85.84309 | 17181 ft | 376 kts | 112° |
| 2026-04-28 21:32 | 27.51587 | 85.87118 | 17682 ft | 379 kts | 105° |
| 2026-04-28 21:32 | 27.51083 | 85.89970 | 18164 ft | 382 kts | 97° |
| 2026-04-28 21:32 | 27.50875 | 85.92962 | 18608 ft | 386 kts | 93° |
| 2026-04-28 21:32 | 27.50769 | 85.96011 | 18822 ft | 397 kts | 92° |
| 2026-04-28 21:33 | 27.50674 | 85.99181 | 19052 ft | 408 kts | 92° |
| 2026-04-28 21:33 | 27.50570 | 86.02425 | 19427 ft | 413 kts | 92° |
| 2026-04-28 21:33 | 27.50459 | 86.05662 | 19857 ft | 416 kts | 92° |
| 2026-04-28 21:33 | 27.50340 | 86.08926 | 20260 ft | 417 kts | 92° |
| 2026-04-28 21:34 | 27.50218 | 86.12178 | 20620 ft | 420 kts | 92° |
| 2026-04-28 21:34 | 27.50092 | 86.15467 | 20963 ft | 423 kts | 92° |
| 2026-04-28 21:34 | 27.49964 | 86.18790 | 21284 ft | 425 kts | 92° |
| 2026-04-28 21:34 | 27.49834 | 86.22111 | 21589 ft | 427 kts | 93° |
| 2026-04-28 21:35 | 27.49610 | 86.25447 | 21882 ft | 429 kts | 96° |
| 2026-04-28 21:35 | 27.49214 | 86.28778 | 22163 ft | 431 kts | 99° |
| 2026-04-28 21:35 | 27.48643 | 86.32113 | 22429 ft | 433 kts | 102° |
| 2026-04-28 21:35 | 27.48009 | 86.35431 | 22678 ft | 435 kts | 102° |
| 2026-04-28 21:36 | 27.47367 | 86.38745 | 22913 ft | 437 kts | 102° |
| 2026-04-28 21:36 | 27.46719 | 86.42090 | 23139 ft | 439 kts | 102° |
| 2026-04-28 21:36 | 27.46073 | 86.45433 | 23366 ft | 441 kts | 102° |
| 2026-04-28 21:36 | 27.45419 | 86.48815 | 23588 ft | 443 kts | 102° |
| 2026-04-28 21:37 | 27.44766 | 86.52200 | 23850 ft | 445 kts | 102° |
| 2026-04-28 21:37 | 27.44107 | 86.55617 | 24117 ft | 447 kts | 102° |
| 2026-04-28 21:37 | 27.43450 | 86.59017 | 24404 ft | 449 kts | 102° |
| 2026-04-28 21:37 | 27.42783 | 86.62465 | 24700 ft | 451 kts | 102° |
| 2026-04-28 21:38 | 27.42116 | 86.65910 | 24994 ft | 453 kts | 103° |
| 2026-04-28 21:38 | 27.41451 | 86.69353 | 25281 ft | 455 kts | 103° |
| 2026-04-28 21:38 | 27.40775 | 86.72852 | 25564 ft | 457 kts | 103° |
| 2026-04-28 21:38 | 27.40102 | 86.76323 | 25840 ft | 459 kts | 103° |
| 2026-04-28 21:39 | 27.39414 | 86.79861 | 26113 ft | 462 kts | 103° |
| 2026-04-28 21:39 | 27.38729 | 86.83376 | 26381 ft | 464 kts | 103° |
| 2026-04-28 21:39 | 27.38041 | 86.86898 | 26645 ft | 466 kts | 103° |
| 2026-04-28 21:39 | 27.37343 | 86.90471 | 26922 ft | 468 kts | 103° |
| 2026-04-28 21:40 | 27.36640 | 86.94054 | 27214 ft | 470 kts | 103° |
| 2026-04-28 21:40 | 27.35940 | 86.97626 | 27512 ft | 471 kts | 103° |
| 2026-04-28 21:40 | 27.35234 | 87.01221 | 27796 ft | 473 kts | 103° |
| 2026-04-28 21:40 | 27.34522 | 87.04840 | 28070 ft | 475 kts | 103° |
| 2026-04-28 21:41 | 27.33811 | 87.08450 | 28347 ft | 477 kts | 103° |
| 2026-04-28 21:41 | 27.33084 | 87.12135 | 28634 ft | 478 kts | 103° |
| 2026-04-28 21:41 | 27.32229 | 87.15739 | 28910 ft | 480 kts | 108° |
| 2026-04-28 21:41 | 27.31121 | 87.19237 | 29258 ft | 479 kts | 113° |
| 2026-04-28 21:42 | 27.29741 | 87.22662 | 29664 ft | 477 kts | 118° |
| 2026-04-28 21:42 | 27.28151 | 87.25876 | 30056 ft | 474 kts | 122° |
| 2026-04-28 21:42 | 27.26424 | 87.29038 | 30449 ft | 473 kts | 123° |
| 2026-04-28 21:42 | 27.24684 | 87.32169 | 30838 ft | 473 kts | 123° |
| 2026-04-28 21:43 | 27.22932 | 87.35314 | 31246 ft | 471 kts | 123° |
| 2026-04-28 21:43 | 27.21197 | 87.38437 | 31648 ft | 469 kts | 123° |
| 2026-04-28 21:43 | 27.19474 | 87.41544 | 32031 ft | 469 kts | 123° |
| 2026-04-28 21:43 | 27.17761 | 87.44638 | 32412 ft | 468 kts | 123° |
| 2026-04-28 21:44 | 27.16060 | 87.47710 | 32785 ft | 467 kts | 123° |
| 2026-04-28 21:44 | 27.14329 | 87.50841 | 33149 ft | 466 kts | 123° |
| 2026-04-28 21:44 | 27.12632 | 87.53911 | 33456 ft | 467 kts | 123° |
| 2026-04-28 21:44 | 27.10920 | 87.57004 | 33731 ft | 468 kts | 123° |
| 2026-04-28 21:45 | 27.09189 | 87.60129 | 33997 ft | 470 kts | 123° |
| 2026-04-28 21:45 | 27.07484 | 87.63203 | 34260 ft | 470 kts | 123° |
| 2026-04-28 21:45 | 27.05738 | 87.66351 | 34482 ft | 471 kts | 123° |
| 2026-04-28 21:45 | 27.04006 | 87.69486 | 34675 ft | 472 kts | 124° |
| 2026-04-28 21:46 | 27.00558 | 87.75716 | 34759 ft | 473 kts | 124° |
| 2026-04-28 21:46 | 26.97080 | 87.81968 | 34739 ft | 472 kts | 124° |
| 2026-04-28 21:47 | 26.93596 | 87.88216 | 34725 ft | 472 kts | 124° |
| 2026-04-28 21:47 | 26.90120 | 87.94441 | 34675 ft | 472 kts | 124° |
| 2026-04-28 21:48 | 26.86613 | 88.00673 | 34656 ft | 473 kts | 124° |
| 2026-04-28 21:48 | 26.83107 | 88.06896 | 34744 ft | 473 kts | 124° |
| 2026-04-28 21:49 | 26.81366 | 88.10000 | 34900 ft | 474 kts | 124° |
| 2026-04-28 21:49 | 26.79635 | 88.13089 | 35123 ft | 472 kts | 124° |
| 2026-04-28 21:49 | 26.77883 | 88.16213 | 35335 ft | 472 kts | 124° |
| 2026-04-28 21:49 | 26.76134 | 88.19333 | 35346 ft | 473 kts | 124° |
| 2026-04-28 21:50 | 26.73178 | 88.25889 | 35104 ft | 478 kts | 110° |
| 2026-04-28 21:50 | 26.72413 | 88.29530 | 34867 ft | 479 kts | 99° |
| 2026-04-28 21:50 | 26.72200 | 88.33231 | 34445 ft | 482 kts | 90° |
| 2026-04-28 21:51 | 26.72544 | 88.36951 | 33815 ft | 480 kts | 80° |
| 2026-04-28 21:51 | 26.73437 | 88.40505 | 33216 ft | 476 kts | 67° |
| 2026-04-28 21:51 | 26.74836 | 88.43829 | 32491 ft | 476 kts | 59° |
| 2026-04-28 21:51 | 26.76551 | 88.46972 | 31740 ft | 477 kts | 56° |
| 2026-04-28 21:52 | 26.78320 | 88.50106 | 30965 ft | 477 kts | 57° |
| 2026-04-28 21:52 | 26.80082 | 88.53236 | 30185 ft | 478 kts | 57° |
| 2026-04-28 21:52 | 26.81829 | 88.56393 | 29361 ft | 474 kts | 57° |
| 2026-04-28 21:52 | 26.83563 | 88.59540 | 28419 ft | 475 kts | 57° |
| 2026-04-28 21:53 | 26.85265 | 88.62639 | 27450 ft | 468 kts | 57° |
| 2026-04-28 21:53 | 26.86955 | 88.65729 | 26469 ft | 461 kts | 57° |
| 2026-04-28 21:53 | 26.88605 | 88.68765 | 25424 ft | 453 kts | 57° |
| 2026-04-28 21:53 | 26.90233 | 88.71766 | 24395 ft | 446 kts | 57° |
| 2026-04-28 21:54 | 26.91830 | 88.74710 | 23401 ft | 439 kts | 57° |
| 2026-04-28 21:54 | 26.93412 | 88.77621 | 22393 ft | 433 kts | 57° |
| 2026-04-28 21:54 | 26.94965 | 88.80475 | 21327 ft | 432 kts | 58° |
| 2026-04-28 21:54 | 26.96538 | 88.83366 | 20277 ft | 437 kts | 57° |
| 2026-04-28 21:55 | 26.98106 | 88.86264 | 19412 ft | 437 kts | 58° |
| 2026-04-28 21:55 | 26.99590 | 88.89178 | 18748 ft | 428 kts | 59° |
| 2026-04-28 21:55 | 27.01021 | 88.92039 | 18121 ft | 416 kts | 59° |
| 2026-04-28 21:55 | 27.02410 | 88.94826 | 17491 ft | 405 kts | 59° |
| 2026-04-28 21:56 | 27.03765 | 88.97543 | 17028 ft | 389 kts | 59° |
| 2026-04-28 21:56 | 27.05060 | 89.00143 | 16824 ft | 369 kts | 60° |
| 2026-04-28 21:56 | 27.06276 | 89.02584 | 16757 ft | 349 kts | 60° |
| 2026-04-28 21:56 | 27.07426 | 89.04894 | 16741 ft | 326 kts | 60° |
| 2026-04-28 21:57 | 27.08488 | 89.07028 | 16742 ft | 305 kts | 60° |
| 2026-04-28 21:57 | 27.09494 | 89.09051 | 16754 ft | 286 kts | 60° |
| 2026-04-28 21:57 | 27.10460 | 89.10987 | 16813 ft | 283 kts | 60° |
| 2026-04-28 21:57 | 27.11427 | 89.12904 | 16842 ft | 279 kts | 59° |
| 2026-04-28 21:58 | 27.12383 | 89.14803 | 16848 ft | 278 kts | 60° |
| 2026-04-28 21:58 | 27.13325 | 89.16687 | 16849 ft | 278 kts | 60° |
| 2026-04-28 21:58 | 27.14274 | 89.18591 | 16824 ft | 279 kts | 60° |
| 2026-04-28 21:58 | 27.15223 | 89.20499 | 16632 ft | 277 kts | 60° |
| 2026-04-28 21:59 | 27.16159 | 89.22390 | 16447 ft | 276 kts | 62° |
| 2026-04-28 21:59 | 27.16929 | 89.24367 | 16233 ft | 275 kts | 71° |
| 2026-04-28 21:59 | 27.17390 | 89.26411 | 15997 ft | 273 kts | 81° |
| 2026-04-28 22:00 | 27.17754 | 89.30675 | 15507 ft | 271 kts | 85° |
| 2026-04-28 22:00 | 27.17896 | 89.32774 | 15270 ft | 270 kts | 85° |
| 2026-04-28 22:00 | 27.18048 | 89.34872 | 15038 ft | 268 kts | 85° |
| 2026-04-28 22:00 | 27.18204 | 89.36942 | 14791 ft | 261 kts | 85° |
| 2026-04-28 22:01 | 27.18359 | 89.38947 | 14568 ft | 251 kts | 85° |
| 2026-04-28 22:01 | 27.18506 | 89.40848 | 14380 ft | 241 kts | 85° |
| 2026-04-28 22:01 | 27.18661 | 89.42679 | 14234 ft | 226 kts | 82° |
| 2026-04-28 22:01 | 27.18969 | 89.44364 | 13954 ft | 216 kts | 73° |
| 2026-04-28 22:02 | 27.19458 | 89.45900 | 13683 ft | 206 kts | 65° |
| 2026-04-28 22:02 | 27.20107 | 89.47306 | 13417 ft | 196 kts | 58° |
| 2026-04-28 22:02 | 27.20861 | 89.48527 | 13176 ft | 188 kts | 50° |
| 2026-04-28 22:02 | 27.21730 | 89.49618 | 12984 ft | 188 kts | 43° |
| 2026-04-28 22:03 | 27.22714 | 89.50590 | 12916 ft | 187 kts | 36° |
| 2026-04-28 22:03 | 27.23799 | 89.51426 | 12854 ft | 185 kts | 29° |
| 2026-04-28 22:03 | 27.24878 | 89.52090 | 12750 ft | 169 kts | 26° |
| 2026-04-28 22:03 | 27.25913 | 89.52697 | 12599 ft | 167 kts | 26° |
| 2026-04-28 22:04 | 27.26932 | 89.53292 | 12306 ft | 164 kts | 26° |
| 2026-04-28 22:04 | 27.27941 | 89.53885 | 12033 ft | 163 kts | 26° |
| 2026-04-28 22:04 | 27.29007 | 89.54307 | 11837 ft | 161 kts | 6° |
| 2026-04-28 22:04 | 27.30123 | 89.54303 | 11641 ft | 158 kts | 347° |
| 2026-04-28 22:05 | 27.31131 | 89.53925 | 11454 ft | 156 kts | 329° |
| 2026-04-28 22:05 | 27.32001 | 89.53212 | 11262 ft | 154 kts | 311° |
| 2026-04-28 22:05 | 27.32626 | 89.52263 | 11078 ft | 152 kts | 295° |
| 2026-04-28 22:05 | 27.32976 | 89.51143 | 10905 ft | 151 kts | 278° |
| 2026-04-28 22:06 | 27.33134 | 89.49952 | 10468 ft | 158 kts | 276° |
| 2026-04-28 22:06 | 27.33363 | 89.48736 | 10017 ft | 160 kts | 287° |
| 2026-04-28 22:06 | 27.33859 | 89.47655 | 9702 ft | 154 kts | 305° |
| 2026-04-28 22:06 | 27.34615 | 89.46811 | 9323 ft | 154 kts | 321° |
| 2026-04-28 22:07 | 27.35483 | 89.46117 | 8999 ft | 150 kts | 324° |
| 2026-04-28 22:07 | 27.36373 | 89.45479 | 8728 ft | 151 kts | 326° |
| 2026-04-28 22:07 | 27.37232 | 89.44805 | 8475 ft | 151 kts | 319° |
| 2026-04-28 22:07 | 27.38040 | 89.44026 | 8025 ft | 157 kts | 319° |
| 2026-04-28 22:08 | 27.38920 | 89.43336 | 7708 ft | 151 kts | 330° |
| 2026-04-28 22:08 | 27.39806 | 89.42804 | 7606 ft | 131 kts | 330° |
| 2026-04-28 22:08 | 27.40336 | 89.42463 | 7604 ft | 44 kts | 329° |
| 2026-04-28 22:08 | 27.40517 | 89.42345 | 7584 ft | 26 kts | 330° |
| 2026-04-28 22:09 | 27.40593 | 89.42260 | 7558 ft | 10 kts | 249° |
| 2026-04-28 22:09 | 27.40577 | 89.42206 | 7531 ft | 6 kts | 273° |
| 2026-04-28 22:09 | 27.40576 | 89.42170 | 7532 ft | 3 kts | 242° |
| 2026-04-28 22:09 | 27.40568 | 89.42154 | 7532 ft | 2 kts | 241° |
| 2026-04-28 22:10 | 27.40566 | 89.42150 | 7531 ft | 0 kts | 241° |